Time;durP1;ratioP1;P1;durP2;ratioP2;P2;SDS_P1;SDS_P2;PMS_P1;PMS_P2;Temp;Humidity;BMP_temperature;BMP_pressure;BME280_temperature;BME280_humidity;BME280_pressure;Samples;Min_cycle;Max_cycle;Signal;HPM_P1;HPM_P2
2022/12/16 00:01:39;;;;;;;82.53;32.72;;;;;;;4.88;87.66;93750.31;6194685;23;19997;-81
2022/12/16 00:04:04;;;;;;;70.20;32.60;;;;;;;4.93;87.26;93756.34;6194705;23;20005;-82
2022/12/16 00:06:32;;;;;;;66.22;31.13;;;;;;;5.00;86.94;93759.44;6194564;23;20012;-82
2022/12/16 00:08:58;;;;;;;70.68;31.38;;;;;;;4.98;85.94;93764.19;6194771;23;20063;-80
2022/12/16 00:11:26;;;;;;;76.60;33.35;;;;;;;4.98;86.09;93750.22;6194493;23;20025;-82
2022/12/16 00:13:51;;;;;;;97.47;31.50;;;;;;;4.97;85.96;93754.72;6194579;23;20055;-82
2022/12/16 00:16:19;;;;;;;77.50;32.28;;;;;;;4.98;85.66;93766.84;6194674;23;20073;-82
2022/12/16 00:18:45;;;;;;;73.70;31.38;;;;;;;4.99;85.57;93757.88;6194820;23;19997;-82
2022/12/16 00:21:11;;;;;;;78.13;32.63;;;;;;;4.99;85.73;93760.50;6194588;23;20059;-82
2022/12/16 00:23:40;;;;;;;181.60;33.10;;;;;;;4.98;85.47;93761.56;6194459;23;20439;-82
2022/12/16 00:26:06;;;;;;;131.00;31.65;;;;;;;4.96;85.14;93736.50;6194255;23;20064;-82
2022/12/16 00:28:32;;;;;;;109.82;32.05;;;;;;;4.89;85.70;93751.91;6194301;23;19993;-82
2022/12/16 00:30:58;;;;;;;178.30;32.65;;;;;;;4.81;85.38;93746.16;6194450;23;20346;-82
2022/12/16 00:33:25;;;;;;;93.40;32.17;;;;;;;4.72;85.64;93755.75;6194556;23;20001;-82
2022/12/16 00:35:51;;;;;;;175.57;33.17;;;;;;;4.67;85.65;93760.28;6194701;23;20072;-83
2022/12/16 00:38:17;;;;;;;96.30;31.13;;;;;;;4.58;86.36;93747.69;6194594;23;20274;-82
2022/12/16 00:40:43;;;;;;;103.65;32.83;;;;;;;4.60;86.89;93750.84;6194564;23;20000;-83
2022/12/16 00:43:08;;;;;;;98.28;33.22;;;;;;;4.67;87.17;93741.81;6194374;23;20052;-83
2022/12/16 00:45:34;;;;;;;69.75;31.17;;;;;;;4.68;86.84;93749.47;6194445;23;20001;-83
2022/12/16 00:48:00;;;;;;;101.53;32.35;;;;;;;4.69;86.82;93735.19;6194288;23;20001;-83
2022/12/16 00:50:25;;;;;;;87.28;33.25;;;;;;;4.72;86.59;93736.47;6192884;23;20227;-83
2022/12/16 00:52:51;;;;;;;70.82;30.10;;;;;;;4.74;86.17;93742.25;6194081;23;20001;-84
2022/12/16 00:55:17;;;;;;;72.55;27.27;;;;;;;4.65;84.56;93751.88;6168595;23;20195;-83
2022/12/16 00:57:43;;;;;;;147.30;33.30;;;;;;;4.55;84.64;93744.81;6194728;23;20008;-84
2022/12/16 01:00:11;;;;;;;171.10;31.75;;;;;;;4.40;85.01;93740.47;6194743;23;20004;-85
2022/12/16 01:02:42;;;;;;;143.27;32.30;;;;;;;4.20;85.75;93734.28;6194254;23;20207;-85
2022/12/16 01:05:09;;;;;;;113.57;32.13;;;;;;;4.18;86.37;93739.03;6167085;23;20004;-84
2022/12/16 01:07:34;;;;;;;115.22;30.05;;;;;;;4.22;86.61;93740.06;6194479;23;20039;-84
2022/12/16 01:10:00;;;;;;;92.28;28.63;;;;;;;4.24;86.63;93744.28;6168444;23;20005;-87
2022/12/16 01:12:26;;;;;;;115.35;28.10;;;;;;;4.26;86.78;93742.16;6194789;23;20004;-86
2022/12/16 01:14:51;;;;;;;135.82;29.52;;;;;;;4.22;86.42;93750.63;6168640;23;19997;-87
2022/12/16 01:17:17;;;;;;;115.63;29.70;;;;;;;4.04;86.19;93743.38;6194388;23;19997;-85
2022/12/16 01:19:42;;;;;;;138.05;29.25;;;;;;;3.90;87.05;93774.06;6195162;23;20001;-86
2022/12/16 01:22:08;;;;;;;132.30;29.33;;;;;;;3.80;87.55;93762.50;6194735;23;20283;-86
2022/12/16 01:24:33;;;;;;;195.73;31.45;;;;;;;3.77;88.44;93752.50;6194803;23;20016;-86
2022/12/16 01:26:59;;;;;;;181.18;28.00;;;;;;;3.69;88.31;93742.53;6194769;23;19997;-86
2022/12/16 01:29:24;;;;;;;242.30;30.70;;;;;;;3.68;88.68;93725.13;6194879;23;19997;-87
2022/12/16 01:31:50;;;;;;;76.88;26.25;;;;;;;3.70;88.98;93738.03;6194594;23;20005;-86
2022/12/16 01:34:16;;;;;;;100.07;28.00;;;;;;;3.73;89.20;93733.03;6194921;23;20001;-86
2022/12/16 01:36:41;;;;;;;145.18;27.75;;;;;;;3.76;89.50;93735.09;6195152;23;20001;-87
2022/12/16 01:39:09;;;;;;;68.88;25.60;;;;;;;3.77;89.08;93734.03;6196556;23;20012;-86
2022/12/16 01:41:35;;;;;;;242.40;30.52;;;;;;;3.75;88.32;93748.56;6196541;23;20008;-86
2022/12/16 01:44:18;;;;;;;109.47;27.27;;;;;;;3.70;88.91;93730.91;6196590;23;20032;-86
2022/12/16 01:46:56;;;;;;;190.52;30.77;;;;;;;3.65;89.65;93730.97;6196456;23;20036;-86
2022/12/16 01:49:40;;;;;;;126.00;26.95;;;;;;;3.65;90.02;93709.88;6196603;23;20051;-87
2022/12/16 01:52:11;;;;;;;285.10;33.47;;;;;;;3.69;90.43;93721.44;6196727;23;20004;-87
2022/12/16 01:54:43;;;;;;;270.95;37.70;;;;;;;3.70;90.72;93723.00;6196717;23;20273;-87
2022/12/16 01:57:12;;;;;;;205.73;32.80;;;;;;;3.70;90.81;93728.28;6170070;23;20001;-86
2022/12/16 01:59:42;;;;;;;340.42;37.63;;;;;;;3.68;90.47;93730.41;6169999;23;20031;-86
2022/12/16 02:02:08;;;;;;;257.70;35.55;;;;;;;3.63;90.91;93732.28;6170002;23;20032;-86
2022/12/16 02:04:33;;;;;;;225.70;36.22;;;;;;;3.66;91.16;93724.63;6169817;23;19996;-86
2022/12/16 02:06:59;;;;;;;224.45;37.03;;;;;;;3.64;91.41;93713.56;6196083;23;20063;-86
2022/12/16 02:09:25;;;;;;;142.57;35.28;;;;;;;3.65;91.65;93699.34;6196276;23;20004;-86
2022/12/16 02:12:04;;;;;;;511.75;50.22;;;;;;;3.66;91.55;93694.84;6196390;23;20286;-86
2022/12/16 02:14:49;;;;;;;160.95;38.95;;;;;;;3.71;91.53;93689.56;6170143;23;20064;-85
2022/12/16 02:17:37;;;;;;;134.93;34.60;;;;;;;3.74;91.61;93681.06;6196004;23;20047;-86
2022/12/16 02:20:43;;;;;;;62.47;29.17;;;;;;;3.79;91.55;93684.47;6170000;23;20001;-85
2022/12/16 02:23:38;;;;;;;77.05;28.50;;;;;;;3.87;90.62;93683.09;6124538;23;20056;-87
2022/12/16 02:26:31;;;;;;;122.57;31.15;;;;;;;3.89;90.17;93693.34;6133979;23;20001;-87
2022/12/16 02:29:27;;;;;;;199.38;29.13;;;;;;;3.76;89.07;93702.69;6170446;23;20024;-88
2022/12/16 02:32:18;;;;;;;88.55;25.42;;;;;;;3.72;88.97;93699.78;6196697;23;20001;-86
2022/12/16 02:34:53;;;;;;;49.97;22.88;;;;;;;3.67;88.85;93686.66;6196936;23;20016;-89
2022/12/16 02:37:32;;;;;;;40.10;21.00;;;;;;;3.69;88.80;93686.41;6196242;23;20007;-87
2022/12/16 02:40:05;;;;;;;41.78;20.30;;;;;;;3.73;89.34;93690.84;6196574;23;19997;-88
2022/12/16 02:42:40;;;;;;;43.95;22.15;;;;;;;3.78;89.22;93679.47;6196581;23;20000;-87
2022/12/16 02:45:18;;;;;;;40.58;20.77;;;;;;;3.85;88.73;93697.59;6196535;23;20001;-87
2022/12/16 02:47:45;;;;;;;36.60;19.50;;;;;;;3.91;88.57;93710.50;6170415;23;20020;-87
2022/12/16 02:50:48;;;;;;;31.58;16.40;;;;;;;3.93;88.13;93723.38;6196335;23;20007;-87
2022/12/16 02:53:14;;;;;;;26.70;16.73;;;;;;;3.85;87.70;93730.06;6172880;23;20088;-87
2022/12/16 02:56:05;;;;;;;34.22;16.20;;;;;;;3.74;88.08;93741.72;6196444;23;20067;-87
2022/12/16 02:58:42;;;;;;;32.00;16.38;;;;;;;3.72;89.45;93747.25;6196142;23;20044;-87
2022/12/16 03:01:22;;;;;;;30.83;17.73;;;;;;;3.70;90.05;93732.78;6196312;23;20055;-87
2022/12/16 03:04:00;;;;;;;32.90;18.58;;;;;;;3.76;90.69;93744.84;6170012;23;20230;-87
2022/12/16 03:06:30;;;;;;;36.53;19.27;;;;;;;3.76;91.61;93743.00;6195774;23;20035;-87
2022/12/16 03:08:59;;;;;;;37.17;19.50;;;;;;;3.79;91.92;93721.38;6195789;23;20000;-86
2022/12/16 03:11:28;;;;;;;40.60;20.70;;;;;;;3.91;92.26;93717.59;6196222;23;19997;-86
2022/12/16 03:13:55;;;;;;;37.55;19.55;;;;;;;3.98;92.06;93703.03;6196286;23;20004;-86
2022/12/16 03:16:26;;;;;;;32.95;18.40;;;;;;;4.04;91.60;93711.72;6195836;23;19997;-87
2022/12/16 03:18:55;;;;;;;34.50;18.33;;;;;;;4.13;91.50;93690.81;6195985;23;20005;-87
2022/12/16 03:21:27;;;;;;;30.83;17.27;;;;;;;4.19;90.85;93687.88;6196181;23;19993;-87
2022/12/16 03:23:57;;;;;;;;;;;;;;;4.27;90.41;93696.22;6196761;23;20009;-88
2022/12/16 03:26:33;;;;;;;33.08;17.00;;;;;;;4.28;89.91;93685.41;6169993;23;20187;-87
2022/12/16 03:29:20;;;;;;;33.55;17.38;;;;;;;4.33;89.51;93692.50;6169939;23;20272;-86
2022/12/16 03:31:59;;;;;;;33.05;16.73;;;;;;;4.38;88.86;93681.91;6196259;23;19997;-87
2022/12/16 03:34:31;;;;;;;29.38;16.83;;;;;;;4.40;88.10;93692.97;6196044;23;20303;-87
2022/12/16 03:37:02;;;;;;;31.90;17.63;;;;;;;4.42;88.17;93680.28;6195947;23;20067;-87
2022/12/16 03:39:30;;;;;;;32.03;17.63;;;;;;;4.43;87.39;93687.13;6169585;23;20005;-87
2022/12/16 03:41:57;;;;;;;32.90;18.40;;;;;;;4.46;87.12;93688.41;6196143;23;20052;-87
2022/12/16 03:44:24;;;;;;;27.67;17.00;;;;;;;4.44;86.87;93704.53;6195897;23;20008;-86
2022/12/16 03:46:50;;;;;;;31.60;17.23;;;;;;;4.41;86.24;93710.34;6195412;23;20059;-85
2022/12/16 03:49:16;;;;;;;29.10;16.65;;;;;;;4.40;85.76;93730.69;6169835;23;19997;-86
2022/12/16 03:51:41;;;;;;;31.83;16.92;;;;;;;4.32;86.23;93741.06;6195429;23;19997;-86
2022/12/16 03:54:07;;;;;;;49.80;19.40;;;;;;;4.25;86.08;93733.44;6169310;23;20064;-86
2022/12/16 03:56:32;;;;;;;61.50;21.05;;;;;;;4.20;86.58;93729.00;6195881;23;20004;-86
2022/12/16 03:58:58;;;;;;;61.65;23.75;;;;;;;4.18;86.97;93728.50;6169304;23;20077;-87
2022/12/16 04:01:23;;;;;;;53.75;24.58;;;;;;;4.19;87.68;93731.91;6195469;23;20008;-87
2022/12/16 04:03:49;;;;;;;56.38;25.55;;;;;;;4.22;88.00;93728.72;6195631;23;20008;-87
2022/12/16 04:06:17;;;;;;;48.88;25.33;;;;;;;4.26;88.09;93744.81;6195468;23;20176;-87
2022/12/16 04:08:46;;;;;;;53.53;26.50;;;;;;;4.29;88.06;93736.31;6195508;23;20049;-86
2022/12/16 04:25:19;;;;;;;88.80;26.33;;;;;;;4.33;90.20;93721.50;6195045;23;19907;-84
2022/12/16 04:27:47;;;;;;;124.22;29.35;;;;;;;4.34;90.64;93717.81;6194743;23;20060;-84
2022/12/16 04:30:17;;;;;;;146.75;31.17;;;;;;;4.39;90.72;93708.00;6168221;23;20129;-84
